sensor_id;sensor_type;location;lat;lon;timestamp;temperature;humidity
67870;DHT22;54673;52.262;6.830;2023-07-29T00:00:57;24.20;62.30
67870;DHT22;54673;52.262;6.830;2023-07-29T00:03:22;24.20;62.30
67870;DHT22;54673;52.262;6.830;2023-07-29T00:05:48;24.20;62.50
67870;DHT22;54673;52.262;6.830;2023-07-29T00:08:14;24.20;62.40
67870;DHT22;54673;52.262;6.830;2023-07-29T00:10:40;24.20;62.40
67870;DHT22;54673;52.262;6.830;2023-07-29T00:13:05;24.20;62.30
67870;DHT22;54673;52.262;6.830;2023-07-29T00:15:31;24.20;62.30
67870;DHT22;54673;52.262;6.830;2023-07-29T00:17:57;24.20;62.40
67870;DHT22;54673;52.262;6.830;2023-07-29T00:20:23;24.20;62.30
67870;DHT22;54673;52.262;6.830;2023-07-29T00:22:48;24.20;62.30
67870;DHT22;54673;52.262;6.830;2023-07-29T00:25:20;24.20;62.30
67870;DHT22;54673;52.262;6.830;2023-07-29T00:27:46;24.20;62.30
67870;DHT22;54673;52.262;6.830;2023-07-29T00:30:11;24.20;62.30
67870;DHT22;54673;52.262;6.830;2023-07-29T00:32:37;24.20;62.30
67870;DHT22;54673;52.262;6.830;2023-07-29T00:35:03;24.20;62.30
67870;DHT22;54673;52.262;6.830;2023-07-29T00:37:30;24.20;62.20
67870;DHT22;54673;52.262;6.830;2023-07-29T00:39:56;24.20;62.20
67870;DHT22;54673;52.262;6.830;2023-07-29T00:42:22;24.20;62.10
67870;DHT22;54673;52.262;6.830;2023-07-29T00:44:47;24.20;62.20
67870;DHT22;54673;52.262;6.830;2023-07-29T00:47:15;24.20;62.20
67870;DHT22;54673;52.262;6.830;2023-07-29T00:49:41;24.20;62.20
67870;DHT22;54673;52.262;6.830;2023-07-29T00:52:07;24.20;62.20
67870;DHT22;54673;52.262;6.830;2023-07-29T00:54:33;24.20;62.20
67870;DHT22;54673;52.262;6.830;2023-07-29T00:56:59;24.20;62.20
67870;DHT22;54673;52.262;6.830;2023-07-29T00:59:24;24.20;62.10
67870;DHT22;54673;52.262;6.830;2023-07-29T01:01:51;24.20;62.20
67870;DHT22;54673;52.262;6.830;2023-07-29T01:04:16;24.20;62.10
67870;DHT22;54673;52.262;6.830;2023-07-29T01:07:07;24.20;62.20
67870;DHT22;54673;52.262;6.830;2023-07-29T01:15:16;24.20;62.00
67870;DHT22;54673;52.262;6.830;2023-07-29T01:17:47;24.20;62.90
67870;DHT22;54673;52.262;6.830;2023-07-29T01:20:15;24.20;61.90
67870;DHT22;54673;52.262;6.830;2023-07-29T01:22:41;24.20;62.00
67870;DHT22;54673;52.262;6.830;2023-07-29T01:25:08;24.20;61.90
67870;DHT22;54673;52.262;6.830;2023-07-29T01:27:34;24.20;62.00
67870;DHT22;54673;52.262;6.830;2023-07-29T01:30:00;24.20;61.90
67870;DHT22;54673;52.262;6.830;2023-07-29T01:33:04;24.20;61.90
67870;DHT22;54673;52.262;6.830;2023-07-29T01:35:35;24.20;61.80
67870;DHT22;54673;52.262;6.830;2023-07-29T01:38:18;24.20;61.90
67870;DHT22;54673;52.262;6.830;2023-07-29T01:40:48;24.10;61.80
67870;DHT22;54673;52.262;6.830;2023-07-29T01:43:14;24.10;61.90
67870;DHT22;54673;52.262;6.830;2023-07-29T01:45:40;24.20;61.80
67870;DHT22;54673;52.262;6.830;2023-07-29T01:48:06;24.10;62.70
67870;DHT22;54673;52.262;6.830;2023-07-29T01:50:32;24.10;61.80
67870;DHT22;54673;52.262;6.830;2023-07-29T01:52:58;24.10;61.80
67870;DHT22;54673;52.262;6.830;2023-07-29T01:55:24;24.10;61.80
67870;DHT22;54673;52.262;6.830;2023-07-29T01:57:50;24.10;61.80
67870;DHT22;54673;52.262;6.830;2023-07-29T02:00:20;24.10;61.70
67870;DHT22;54673;52.262;6.830;2023-07-29T02:02:46;24.10;61.70
67870;DHT22;54673;52.262;6.830;2023-07-29T02:05:11;24.10;61.80
67870;DHT22;54673;52.262;6.830;2023-07-29T02:07:37;24.10;61.60
67870;DHT22;54673;52.262;6.830;2023-07-29T02:10:03;24.10;61.60
67870;DHT22;54673;52.262;6.830;2023-07-29T02:12:29;24.10;61.60
67870;DHT22;54673;52.262;6.830;2023-07-29T02:14:54;24.10;61.60
67870;DHT22;54673;52.262;6.830;2023-07-29T02:17:20;24.00;61.60
67870;DHT22;54673;52.262;6.830;2023-07-29T02:19:46;24.10;61.60
67870;DHT22;54673;52.262;6.830;2023-07-29T02:22:16;24.10;61.60
67870;DHT22;54673;52.262;6.830;2023-07-29T02:24:42;24.10;61.80
67870;DHT22;54673;52.262;6.830;2023-07-29T02:27:08;24.10;61.60
67870;DHT22;54673;52.262;6.830;2023-07-29T02:29:34;24.10;61.60
67870;DHT22;54673;52.262;6.830;2023-07-29T02:32:00;24.00;61.50
67870;DHT22;54673;52.262;6.830;2023-07-29T02:34:25;24.10;61.60
67870;DHT22;54673;52.262;6.830;2023-07-29T02:36:51;24.10;61.50
67870;DHT22;54673;52.262;6.830;2023-07-29T02:39:17;24.00;61.50
67870;DHT22;54673;52.262;6.830;2023-07-29T02:41:42;24.10;60.70
67870;DHT22;54673;52.262;6.830;2023-07-29T02:44:08;24.00;61.40
67870;DHT22;54673;52.262;6.830;2023-07-29T02:46:33;24.10;61.40
67870;DHT22;54673;52.262;6.830;2023-07-29T02:48:59;24.00;62.20
67870;DHT22;54673;52.262;6.830;2023-07-29T02:51:25;24.00;61.40
67870;DHT22;54673;52.262;6.830;2023-07-29T02:53:50;24.10;61.30
67870;DHT22;54673;52.262;6.830;2023-07-29T02:56:16;24.00;61.20
67870;DHT22;54673;52.262;6.830;2023-07-29T02:58:41;24.00;61.30
67870;DHT22;54673;52.262;6.830;2023-07-29T03:01:07;24.00;61.30
67870;DHT22;54673;52.262;6.830;2023-07-29T03:03:33;24.00;61.20
67870;DHT22;54673;52.262;6.830;2023-07-29T03:06:09;24.00;61.20
67870;DHT22;54673;52.262;6.830;2023-07-29T03:08:35;24.00;61.30
67870;DHT22;54673;52.262;6.830;2023-07-29T03:11:09;24.00;61.20
67870;DHT22;54673;52.262;6.830;2023-07-29T03:13:34;24.00;61.20
67870;DHT22;54673;52.262;6.830;2023-07-29T03:16:14;24.00;61.10
67870;DHT22;54673;52.262;6.830;2023-07-29T03:18:41;24.00;61.20
67870;DHT22;54673;52.262;6.830;2023-07-29T03:21:07;24.00;61.10
67870;DHT22;54673;52.262;6.830;2023-07-29T03:23:34;24.00;61.20
67870;DHT22;54673;52.262;6.830;2023-07-29T03:26:01;24.00;61.10
67870;DHT22;54673;52.262;6.830;2023-07-29T03:28:28;24.00;61.10
67870;DHT22;54673;52.262;6.830;2023-07-29T03:30:55;24.00;61.00
67870;DHT22;54673;52.262;6.830;2023-07-29T03:33:20;24.00;61.10
67870;DHT22;54673;52.262;6.830;2023-07-29T03:35:46;24.00;61.10
67870;DHT22;54673;52.262;6.830;2023-07-29T03:38:12;24.00;61.10
67870;DHT22;54673;52.262;6.830;2023-07-29T03:40:39;24.00;61.10
67870;DHT22;54673;52.262;6.830;2023-07-29T03:43:04;24.00;61.00
67870;DHT22;54673;52.262;6.830;2023-07-29T03:45:30;24.00;61.00
67870;DHT22;54673;52.262;6.830;2023-07-29T03:47:56;24.00;61.00
67870;DHT22;54673;52.262;6.830;2023-07-29T03:50:21;24.00;61.80
67870;DHT22;54673;52.262;6.830;2023-07-29T03:52:47;24.00;60.90
67870;DHT22;54673;52.262;6.830;2023-07-29T03:55:13;24.00;60.90
67870;DHT22;54673;52.262;6.830;2023-07-29T03:57:38;24.00;60.90
67870;DHT22;54673;52.262;6.830;2023-07-29T04:00:05;24.00;60.90
67870;DHT22;54673;52.262;6.830;2023-07-29T04:02:31;24.00;60.90
67870;DHT22;54673;52.262;6.830;2023-07-29T04:04:56;24.00;60.90
67870;DHT22;54673;52.262;6.830;2023-07-29T04:07:22;24.00;60.90
67870;DHT22;54673;52.262;6.830;2023-07-29T04:09:48;24.00;61.00
67870;DHT22;54673;52.262;6.830;2023-07-29T04:12:14;24.00;61.00
67870;DHT22;54673;52.262;6.830;2023-07-29T04:14:40;24.00;61.00
67870;DHT22;54673;52.262;6.830;2023-07-29T04:17:06;24.00;60.90
67870;DHT22;54673;52.262;6.830;2023-07-29T04:19:32;24.00;60.90
67870;DHT22;54673;52.262;6.830;2023-07-29T04:21:58;24.00;60.90
67870;DHT22;54673;52.262;6.830;2023-07-29T04:24:23;24.00;60.90
67870;DHT22;54673;52.262;6.830;2023-07-29T04:26:49;24.00;60.80
67870;DHT22;54673;52.262;6.830;2023-07-29T04:29:15;24.00;60.90
67870;DHT22;54673;52.262;6.830;2023-07-29T04:31:40;24.00;60.70
67870;DHT22;54673;52.262;6.830;2023-07-29T04:34:06;24.00;60.80
67870;DHT22;54673;52.262;6.830;2023-07-29T04:36:32;24.00;60.70
67870;DHT22;54673;52.262;6.830;2023-07-29T04:38:58;24.00;60.80
67870;DHT22;54673;52.262;6.830;2023-07-29T04:41:23;24.00;61.10
67870;DHT22;54673;52.262;6.830;2023-07-29T04:43:49;24.00;61.10
67870;DHT22;54673;52.262;6.830;2023-07-29T04:46:15;24.00;61.10
67870;DHT22;54673;52.262;6.830;2023-07-29T04:48:41;24.00;61.20
67870;DHT22;54673;52.262;6.830;2023-07-29T04:51:06;24.00;61.20
67870;DHT22;54673;52.262;6.830;2023-07-29T04:53:32;24.00;61.20
67870;DHT22;54673;52.262;6.830;2023-07-29T04:55:58;24.00;61.10
67870;DHT22;54673;52.262;6.830;2023-07-29T04:58:23;24.00;61.00
67870;DHT22;54673;52.262;6.830;2023-07-29T05:00:49;24.00;60.90
67870;DHT22;54673;52.262;6.830;2023-07-29T05:03:14;24.00;60.90
67870;DHT22;54673;52.262;6.830;2023-07-29T05:05:40;24.00;61.70
67870;DHT22;54673;52.262;6.830;2023-07-29T05:08:06;24.00;60.90
67870;DHT22;54673;52.262;6.830;2023-07-29T05:10:31;24.00;60.90
67870;DHT22;54673;52.262;6.830;2023-07-29T05:12:57;24.00;60.80
67870;DHT22;54673;52.262;6.830;2023-07-29T05:15:23;24.00;60.80
67870;DHT22;54673;52.262;6.830;2023-07-29T05:17:48;24.00;60.90
67870;DHT22;54673;52.262;6.830;2023-07-29T05:20:14;24.00;60.90
67870;DHT22;54673;52.262;6.830;2023-07-29T05:22:39;24.00;60.90
67870;DHT22;54673;52.262;6.830;2023-07-29T05:25:05;24.00;60.90
67870;DHT22;54673;52.262;6.830;2023-07-29T05:27:31;24.00;60.70
67870;DHT22;54673;52.262;6.830;2023-07-29T05:29:57;24.00;60.80
67870;DHT22;54673;52.262;6.830;2023-07-29T05:32:22;24.00;60.90
67870;DHT22;54673;52.262;6.830;2023-07-29T05:34:48;24.00;60.80
67870;DHT22;54673;52.262;6.830;2023-07-29T05:37:13;24.00;60.70
67870;DHT22;54673;52.262;6.830;2023-07-29T05:39:39;24.00;61.60
67870;DHT22;54673;52.262;6.830;2023-07-29T05:42:05;24.00;60.70
67870;DHT22;54673;52.262;6.830;2023-07-29T05:44:31;24.00;60.80
67870;DHT22;54673;52.262;6.830;2023-07-29T05:46:56;24.00;60.80
67870;DHT22;54673;52.262;6.830;2023-07-29T05:49:22;24.00;60.80
67870;DHT22;54673;52.262;6.830;2023-07-29T05:51:48;24.00;60.70
67870;DHT22;54673;52.262;6.830;2023-07-29T05:54:13;24.10;60.70
67870;DHT22;54673;52.262;6.830;2023-07-29T05:56:39;24.00;60.70
67870;DHT22;54673;52.262;6.830;2023-07-29T05:59:04;24.00;60.60
67870;DHT22;54673;52.262;6.830;2023-07-29T06:01:30;24.00;60.60
67870;DHT22;54673;52.262;6.830;2023-07-29T06:03:55;24.00;60.60
67870;DHT22;54673;52.262;6.830;2023-07-29T06:06:21;24.00;60.50
67870;DHT22;54673;52.262;6.830;2023-07-29T06:08:49;24.00;60.50
67870;DHT22;54673;52.262;6.830;2023-07-29T06:11:14;24.00;60.50
67870;DHT22;54673;52.262;6.830;2023-07-29T06:13:40;24.00;60.50
67870;DHT22;54673;52.262;6.830;2023-07-29T06:16:06;24.00;60.40
67870;DHT22;54673;52.262;6.830;2023-07-29T06:18:31;24.00;60.50
67870;DHT22;54673;52.262;6.830;2023-07-29T06:20:57;24.00;60.40
67870;DHT22;54673;52.262;6.830;2023-07-29T06:23:22;23.70;60.20
67870;DHT22;54673;52.262;6.830;2023-07-29T06:25:48;24.00;61.30
67870;DHT22;54673;52.262;6.830;2023-07-29T06:28:14;24.00;60.30
67870;DHT22;54673;52.262;6.830;2023-07-29T06:30:39;24.00;60.30
67870;DHT22;54673;52.262;6.830;2023-07-29T06:33:05;24.00;60.20
67870;DHT22;54673;52.262;6.830;2023-07-29T06:35:30;24.00;60.20
67870;DHT22;54673;52.262;6.830;2023-07-29T06:37:56;24.00;60.20
67870;DHT22;54673;52.262;6.830;2023-07-29T06:40:21;24.00;60.20
67870;DHT22;54673;52.262;6.830;2023-07-29T06:42:47;24.10;60.30
67870;DHT22;54673;52.262;6.830;2023-07-29T06:45:13;24.00;60.20
67870;DHT22;54673;52.262;6.830;2023-07-29T06:47:38;24.00;60.20
67870;DHT22;54673;52.262;6.830;2023-07-29T06:50:04;24.00;60.20
67870;DHT22;54673;52.262;6.830;2023-07-29T06:52:30;24.10;60.10
67870;DHT22;54673;52.262;6.830;2023-07-29T06:54:56;24.00;60.00
67870;DHT22;54673;52.262;6.830;2023-07-29T06:57:21;24.10;60.00
67870;DHT22;54673;52.262;6.830;2023-07-29T06:59:47;24.10;59.90
67870;DHT22;54673;52.262;6.830;2023-07-29T07:02:13;24.00;59.80
67870;DHT22;54673;52.262;6.830;2023-07-29T07:04:38;24.00;59.80
67870;DHT22;54673;52.262;6.830;2023-07-29T07:07:04;24.00;59.80
67870;DHT22;54673;52.262;6.830;2023-07-29T07:09:30;24.00;59.80
67870;DHT22;54673;52.262;6.830;2023-07-29T07:11:55;24.10;59.80
67870;DHT22;54673;52.262;6.830;2023-07-29T07:14:21;24.00;59.80
67870;DHT22;54673;52.262;6.830;2023-07-29T07:16:46;24.10;59.70
67870;DHT22;54673;52.262;6.830;2023-07-29T07:19:12;24.00;59.70
67870;DHT22;54673;52.262;6.830;2023-07-29T07:21:37;24.10;59.60
67870;DHT22;54673;52.262;6.830;2023-07-29T07:24:03;24.00;59.60
67870;DHT22;54673;52.262;6.830;2023-07-29T07:26:29;24.10;59.60
67870;DHT22;54673;52.262;6.830;2023-07-29T07:28:54;24.10;59.50
67870;DHT22;54673;52.262;6.830;2023-07-29T07:31:20;24.10;59.50
67870;DHT22;54673;52.262;6.830;2023-07-29T07:33:45;24.10;59.50
67870;DHT22;54673;52.262;6.830;2023-07-29T07:36:11;24.00;59.50
67870;DHT22;54673;52.262;6.830;2023-07-29T07:38:37;24.10;59.50
67870;DHT22;54673;52.262;6.830;2023-07-29T07:41:02;24.10;59.50
67870;DHT22;54673;52.262;6.830;2023-07-29T07:43:28;24.10;59.50
67870;DHT22;54673;52.262;6.830;2023-07-29T07:45:59;24.10;59.50
67870;DHT22;54673;52.262;6.830;2023-07-29T07:48:25;24.00;59.40
67870;DHT22;54673;52.262;6.830;2023-07-29T07:50:51;24.00;59.30
67870;DHT22;54673;52.262;6.830;2023-07-29T07:53:16;24.00;59.20
67870;DHT22;54673;52.262;6.830;2023-07-29T07:55:42;24.00;59.20
67870;DHT22;54673;52.262;6.830;2023-07-29T07:58:07;24.20;59.20
67870;DHT22;54673;52.262;6.830;2023-07-29T08:00:33;24.00;59.00
67870;DHT22;54673;52.262;6.830;2023-07-29T08:02:58;24.10;59.00
67870;DHT22;54673;52.262;6.830;2023-07-29T08:05:24;24.10;59.10
67870;DHT22;54673;52.262;6.830;2023-07-29T08:07:50;24.10;59.00
67870;DHT22;54673;52.262;6.830;2023-07-29T08:10:15;24.20;59.10
67870;DHT22;54673;52.262;6.830;2023-07-29T08:12:41;24.20;59.10
67870;DHT22;54673;52.262;6.830;2023-07-29T08:15:07;24.20;59.10
67870;DHT22;54673;52.262;6.830;2023-07-29T08:17:32;24.20;59.10
67870;DHT22;54673;52.262;6.830;2023-07-29T08:19:58;24.20;59.10
67870;DHT22;54673;52.262;6.830;2023-07-29T08:22:23;24.20;59.00
67870;DHT22;54673;52.262;6.830;2023-07-29T08:24:49;24.20;59.10
67870;DHT22;54673;52.262;6.830;2023-07-29T08:27:14;24.20;59.00
67870;DHT22;54673;52.262;6.830;2023-07-29T08:29:40;24.20;59.00
67870;DHT22;54673;52.262;6.830;2023-07-29T08:32:06;24.20;58.90
67870;DHT22;54673;52.262;6.830;2023-07-29T08:34:31;24.20;58.90
67870;DHT22;54673;52.262;6.830;2023-07-29T08:36:57;24.20;58.80
67870;DHT22;54673;52.262;6.830;2023-07-29T08:39:22;24.20;58.80
67870;DHT22;54673;52.262;6.830;2023-07-29T08:42:01;24.20;58.80
67870;DHT22;54673;52.262;6.830;2023-07-29T08:49:51;23.00;67.00
67870;DHT22;54673;52.262;6.830;2023-07-29T08:52:18;22.30;73.60
67870;DHT22;54673;52.262;6.830;2023-07-29T08:54:44;21.90;76.40
67870;DHT22;54673;52.262;6.830;2023-07-29T08:57:13;22.00;75.30
67870;DHT22;54673;52.262;6.830;2023-07-29T08:59:39;22.70;75.70
67870;DHT22;54673;52.262;6.830;2023-07-29T09:02:06;23.00;76.60
67870;DHT22;54673;52.262;6.830;2023-07-29T09:04:32;23.40;68.00
67870;DHT22;54673;52.262;6.830;2023-07-29T09:06:59;24.20;62.60
67870;DHT22;54673;52.262;6.830;2023-07-29T09:09:25;23.80;67.40
67870;DHT22;54673;52.262;6.830;2023-07-29T09:11:51;23.80;68.10
67870;DHT22;54673;52.262;6.830;2023-07-29T09:14:17;23.70;67.90
67870;DHT22;54673;52.262;6.830;2023-07-29T09:16:43;23.80;68.40
67870;DHT22;54673;52.262;6.830;2023-07-29T09:19:09;23.80;68.10
67870;DHT22;54673;52.262;6.830;2023-07-29T09:21:38;23.90;67.80
67870;DHT22;54673;52.262;6.830;2023-07-29T09:24:04;24.00;67.40
67870;DHT22;54673;52.262;6.830;2023-07-29T09:26:30;24.10;67.10
67870;DHT22;54673;52.262;6.830;2023-07-29T09:28:58;24.20;66.60
67870;DHT22;54673;52.262;6.830;2023-07-29T09:31:27;24.30;66.30
67870;DHT22;54673;52.262;6.830;2023-07-29T09:33:57;24.40;66.50
67870;DHT22;54673;52.262;6.830;2023-07-29T09:36:24;24.40;65.70
67870;DHT22;54673;52.262;6.830;2023-07-29T09:38:53;24.50;65.90
67870;DHT22;54673;52.262;6.830;2023-07-29T09:41:22;24.50;65.30
67870;DHT22;54673;52.262;6.830;2023-07-29T09:43:55;24.60;65.00
67870;DHT22;54673;52.262;6.830;2023-07-29T09:46:23;24.60;65.00
67870;DHT22;54673;52.262;6.830;2023-07-29T09:48:49;24.70;65.70
67870;DHT22;54673;52.262;6.830;2023-07-29T09:51:18;24.60;64.80
67870;DHT22;54673;52.262;6.830;2023-07-29T09:53:45;24.70;65.20
67870;DHT22;54673;52.262;6.830;2023-07-29T09:56:12;24.80;64.70
67870;DHT22;54673;52.262;6.830;2023-07-29T09:58:38;24.80;64.40
67870;DHT22;54673;52.262;6.830;2023-07-29T10:01:07;24.80;64.50
67870;DHT22;54673;52.262;6.830;2023-07-29T10:03:34;24.90;64.50
67870;DHT22;54673;52.262;6.830;2023-07-29T10:06:06;24.90;64.10
67870;DHT22;54673;52.262;6.830;2023-07-29T10:08:33;24.80;63.90
67870;DHT22;54673;52.262;6.830;2023-07-29T10:11:05;24.80;64.20
67870;DHT22;54673;52.262;6.830;2023-07-29T10:13:32;24.90;63.60
67870;DHT22;54673;52.262;6.830;2023-07-29T10:15:59;24.90;63.10
67870;DHT22;54673;52.262;6.830;2023-07-29T10:18:28;24.90;64.70
67870;DHT22;54673;52.262;6.830;2023-07-29T10:20:54;24.90;63.80
67870;DHT22;54673;52.262;6.830;2023-07-29T10:23:22;24.90;64.10
67870;DHT22;54673;52.262;6.830;2023-07-29T10:25:59;24.90;64.00
67870;DHT22;54673;52.262;6.830;2023-07-29T10:28:29;25.00;64.00
67870;DHT22;54673;52.262;6.830;2023-07-29T10:30:56;24.90;63.90
67870;DHT22;54673;52.262;6.830;2023-07-29T10:33:22;24.90;63.80
67870;DHT22;54673;52.262;6.830;2023-07-29T10:35:48;24.90;63.60
67870;DHT22;54673;52.262;6.830;2023-07-29T10:38:14;24.90;64.40
67870;DHT22;54673;52.262;6.830;2023-07-29T10:40:49;24.90;63.90
67870;DHT22;54673;52.262;6.830;2023-07-29T10:43:23;24.90;63.90
67870;DHT22;54673;52.262;6.830;2023-07-29T10:45:49;25.00;63.80
67870;DHT22;54673;52.262;6.830;2023-07-29T10:53:46;24.90;61.90
67870;DHT22;54673;52.262;6.830;2023-07-29T10:56:12;24.80;62.00
67870;DHT22;54673;52.262;6.830;2023-07-29T10:58:38;24.80;62.50
67870;DHT22;54673;52.262;6.830;2023-07-29T11:01:13;24.90;61.50
67870;DHT22;54673;52.262;6.830;2023-07-29T11:03:38;24.90;62.00
67870;DHT22;54673;52.262;6.830;2023-07-29T11:06:04;24.90;62.30
67870;DHT22;54673;52.262;6.830;2023-07-29T11:08:30;25.00;62.80
67870;DHT22;54673;52.262;6.830;2023-07-29T11:13:29;25.10;63.30
67870;DHT22;54673;52.262;6.830;2023-07-29T11:15:55;25.10;62.90
67870;DHT22;54673;52.262;6.830;2023-07-29T11:18:27;25.10;63.30
67870;DHT22;54673;52.262;6.830;2023-07-29T11:20:54;25.10;63.70
67870;DHT22;54673;52.262;6.830;2023-07-29T11:23:20;25.10;63.80
67870;DHT22;54673;52.262;6.830;2023-07-29T11:25:52;25.10;63.40
67870;DHT22;54673;52.262;6.830;2023-07-29T11:28:18;25.10;63.90
67870;DHT22;54673;52.262;6.830;2023-07-29T11:30:43;25.10;63.80
67870;DHT22;54673;52.262;6.830;2023-07-29T11:33:10;25.10;63.40
67870;DHT22;54673;52.262;6.830;2023-07-29T11:35:36;25.20;63.20
67870;DHT22;54673;52.262;6.830;2023-07-29T11:38:02;25.10;63.70
67870;DHT22;54673;52.262;6.830;2023-07-29T11:40:29;25.10;63.50
67870;DHT22;54673;52.262;6.830;2023-07-29T11:42:54;25.10;63.20
67870;DHT22;54673;52.262;6.830;2023-07-29T11:45:21;25.10;60.70
67870;DHT22;54673;52.262;6.830;2023-07-29T11:47:47;25.10;60.30
67870;DHT22;54673;52.262;6.830;2023-07-29T11:50:14;25.10;60.30
67870;DHT22;54673;52.262;6.830;2023-07-29T11:52:42;25.20;60.60
67870;DHT22;54673;52.262;6.830;2023-07-29T11:55:08;25.20;61.40
67870;DHT22;54673;52.262;6.830;2023-07-29T11:57:36;25.20;61.80
67870;DHT22;54673;52.262;6.830;2023-07-29T12:00:03;25.20;61.20
67870;DHT22;54673;52.262;6.830;2023-07-29T12:02:30;25.20;61.00
67870;DHT22;54673;52.262;6.830;2023-07-29T12:04:57;25.20;61.50
67870;DHT22;54673;52.262;6.830;2023-07-29T12:07:23;25.20;61.80
67870;DHT22;54673;52.262;6.830;2023-07-29T12:09:49;25.20;61.90
67870;DHT22;54673;52.262;6.830;2023-07-29T12:12:15;25.20;61.90
67870;DHT22;54673;52.262;6.830;2023-07-29T12:14:44;25.10;62.00
67870;DHT22;54673;52.262;6.830;2023-07-29T12:17:11;25.20;62.00
67870;DHT22;54673;52.262;6.830;2023-07-29T12:19:38;25.20;62.20
67870;DHT22;54673;52.262;6.830;2023-07-29T12:22:05;25.10;60.90
67870;DHT22;54673;52.262;6.830;2023-07-29T12:24:41;25.10;62.00
67870;DHT22;54673;52.262;6.830;2023-07-29T12:27:11;25.10;62.20
67870;DHT22;54673;52.262;6.830;2023-07-29T12:29:42;25.10;63.40
67870;DHT22;54673;52.262;6.830;2023-07-29T12:32:08;25.10;64.00
67870;DHT22;54673;52.262;6.830;2023-07-29T12:34:35;25.10;64.50
67870;DHT22;54673;52.262;6.830;2023-07-29T12:37:03;25.10;64.60
67870;DHT22;54673;52.262;6.830;2023-07-29T12:39:31;25.10;65.00
67870;DHT22;54673;52.262;6.830;2023-07-29T12:41:59;25.10;65.10
67870;DHT22;54673;52.262;6.830;2023-07-29T12:44:27;25.10;65.50
67870;DHT22;54673;52.262;6.830;2023-07-29T12:46:52;25.10;65.20
67870;DHT22;54673;52.262;6.830;2023-07-29T12:49:18;25.10;65.10
67870;DHT22;54673;52.262;6.830;2023-07-29T12:51:44;25.00;65.40
67870;DHT22;54673;52.262;6.830;2023-07-29T12:54:09;25.00;65.70
67870;DHT22;54673;52.262;6.830;2023-07-29T12:56:35;25.00;65.90
67870;DHT22;54673;52.262;6.830;2023-07-29T12:59:01;25.00;65.90
67870;DHT22;54673;52.262;6.830;2023-07-29T13:01:27;25.00;65.90
67870;DHT22;54673;52.262;6.830;2023-07-29T13:03:54;24.90;65.90
67870;DHT22;54673;52.262;6.830;2023-07-29T13:06:20;24.90;66.10
67870;DHT22;54673;52.262;6.830;2023-07-29T13:08:46;24.90;66.10
67870;DHT22;54673;52.262;6.830;2023-07-29T13:11:12;24.90;66.10
67870;DHT22;54673;52.262;6.830;2023-07-29T13:13:38;24.90;65.90
67870;DHT22;54673;52.262;6.830;2023-07-29T13:16:04;24.80;65.80
67870;DHT22;54673;52.262;6.830;2023-07-29T13:18:30;24.80;66.10
67870;DHT22;54673;52.262;6.830;2023-07-29T13:20:55;24.80;66.00
67870;DHT22;54673;52.262;6.830;2023-07-29T13:23:21;24.80;65.80
67870;DHT22;54673;52.262;6.830;2023-07-29T13:25:47;24.80;65.70
67870;DHT22;54673;52.262;6.830;2023-07-29T13:28:13;24.80;62.70
67870;DHT22;54673;52.262;6.830;2023-07-29T13:30:39;24.70;65.80
67870;DHT22;54673;52.262;6.830;2023-07-29T13:33:06;24.70;65.90
67870;DHT22;54673;52.262;6.830;2023-07-29T13:35:32;24.60;66.00
67870;DHT22;54673;52.262;6.830;2023-07-29T13:37:57;24.60;66.10
67870;DHT22;54673;52.262;6.830;2023-07-29T13:40:23;24.60;65.90
67870;DHT22;54673;52.262;6.830;2023-07-29T13:42:49;24.60;66.10
67870;DHT22;54673;52.262;6.830;2023-07-29T13:45:14;24.50;66.10
67870;DHT22;54673;52.262;6.830;2023-07-29T13:47:40;24.50;66.20
67870;DHT22;54673;52.262;6.830;2023-07-29T13:50:06;24.50;66.80
67870;DHT22;54673;52.262;6.830;2023-07-29T13:52:33;24.50;66.80
67870;DHT22;54673;52.262;6.830;2023-07-29T13:54:59;24.50;66.30
67870;DHT22;54673;52.262;6.830;2023-07-29T13:57:25;24.50;66.30
67870;DHT22;54673;52.262;6.830;2023-07-29T13:59:50;24.40;66.00
67870;DHT22;54673;52.262;6.830;2023-07-29T14:02:16;24.40;66.50
67870;DHT22;54673;52.262;6.830;2023-07-29T14:04:41;24.50;66.50
67870;DHT22;54673;52.262;6.830;2023-07-29T14:07:07;24.50;64.80
67870;DHT22;54673;52.262;6.830;2023-07-29T14:09:32;24.50;66.40
67870;DHT22;54673;52.262;6.830;2023-07-29T14:11:58;24.50;66.20
67870;DHT22;54673;52.262;6.830;2023-07-29T14:14:24;24.50;65.10
67870;DHT22;54673;52.262;6.830;2023-07-29T14:16:49;24.50;66.10
67870;DHT22;54673;52.262;6.830;2023-07-29T14:19:15;24.50;66.40
67870;DHT22;54673;52.262;6.830;2023-07-29T14:21:40;24.50;66.30
67870;DHT22;54673;52.262;6.830;2023-07-29T14:24:06;24.60;66.40
67870;DHT22;54673;52.262;6.830;2023-07-29T14:26:32;24.60;62.30
67870;DHT22;54673;52.262;6.830;2023-07-29T14:28:57;24.60;65.70
67870;DHT22;54673;52.262;6.830;2023-07-29T14:31:23;24.60;66.30
67870;DHT22;54673;52.262;6.830;2023-07-29T14:33:49;24.60;66.00
67870;DHT22;54673;52.262;6.830;2023-07-29T14:36:15;24.70;64.70
67870;DHT22;54673;52.262;6.830;2023-07-29T14:38:41;24.70;65.90
67870;DHT22;54673;52.262;6.830;2023-07-29T14:41:07;24.80;65.50
67870;DHT22;54673;52.262;6.830;2023-07-29T14:43:33;24.80;65.50
67870;DHT22;54673;52.262;6.830;2023-07-29T14:45:59;24.80;62.50
67870;DHT22;54673;52.262;6.830;2023-07-29T14:48:25;24.80;65.60
67870;DHT22;54673;52.262;6.830;2023-07-29T14:50:50;24.90;65.70
67870;DHT22;54673;52.262;6.830;2023-07-29T14:53:16;24.90;65.70
67870;DHT22;54673;52.262;6.830;2023-07-29T14:55:41;24.90;65.50
67870;DHT22;54673;52.262;6.830;2023-07-29T14:58:07;25.00;64.50
67870;DHT22;54673;52.262;6.830;2023-07-29T15:00:33;25.00;65.30
67870;DHT22;54673;52.262;6.830;2023-07-29T15:02:58;25.00;65.60
67870;DHT22;54673;52.262;6.830;2023-07-29T15:05:24;25.10;62.60
67870;DHT22;54673;52.262;6.830;2023-07-29T15:07:50;25.10;65.50
67870;DHT22;54673;52.262;6.830;2023-07-29T15:10:16;25.10;65.60
67870;DHT22;54673;52.262;6.830;2023-07-29T15:12:42;25.10;64.40
67870;DHT22;54673;52.262;6.830;2023-07-29T15:15:10;25.10;65.50
67870;DHT22;54673;52.262;6.830;2023-07-29T15:17:35;25.20;62.40
67870;DHT22;54673;52.262;6.830;2023-07-29T15:20:02;25.10;64.60
67870;DHT22;54673;52.262;6.830;2023-07-29T15:22:29;25.10;65.10
67870;DHT22;54673;52.262;6.830;2023-07-29T15:24:54;25.10;63.60
67870;DHT22;54673;52.262;6.830;2023-07-29T15:27:20;25.20;64.10
67870;DHT22;54673;52.262;6.830;2023-07-29T15:29:45;25.20;65.20
67870;DHT22;54673;52.262;6.830;2023-07-29T15:32:11;25.20;63.90
67870;DHT22;54673;52.262;6.830;2023-07-29T15:34:37;25.20;65.80
67870;DHT22;54673;52.262;6.830;2023-07-29T15:37:03;25.30;65.70
67870;DHT22;54673;52.262;6.830;2023-07-29T15:39:29;25.30;65.00
67870;DHT22;54673;52.262;6.830;2023-07-29T15:41:54;25.30;65.50
67870;DHT22;54673;52.262;6.830;2023-07-29T15:44:20;25.30;65.30